sensor_id;sensor_type;location;lat;lon;timestamp;P1;durP1;ratioP1;P2;durP2;ratioP2
20653;SDS011;21083;50.898;4.902;2024-03-25T00:02:06;17.20;;;6.15;;
20653;SDS011;21083;50.898;4.902;2024-03-25T00:04:34;17.85;;;6.15;;
20653;SDS011;21083;50.898;4.902;2024-03-25T00:07:01;17.33;;;6.43;;
20653;SDS011;21083;50.898;4.902;2024-03-25T00:09:28;21.25;;;6.35;;
20653;SDS011;21083;50.898;4.902;2024-03-25T00:11:54;14.80;;;6.30;;
20653;SDS011;21083;50.898;4.902;2024-03-25T00:14:22;16.85;;;5.70;;
20653;SDS011;21083;50.898;4.902;2024-03-25T00:16:48;14.93;;;5.53;;
20653;SDS011;21083;50.898;4.902;2024-03-25T00:19:15;24.05;;;6.43;;
20653;SDS011;21083;50.898;4.902;2024-03-25T00:21:43;18.42;;;6.80;;
20653;SDS011;21083;50.898;4.902;2024-03-25T00:24:10;18.58;;;6.00;;
20653;SDS011;21083;50.898;4.902;2024-03-25T00:26:37;20.25;;;5.78;;
20653;SDS011;21083;50.898;4.902;2024-03-25T00:29:04;19.98;;;6.22;;
20653;SDS011;21083;50.898;4.902;2024-03-25T00:31:30;17.98;;;5.70;;
20653;SDS011;21083;50.898;4.902;2024-03-25T00:33:57;14.65;;;6.13;;
20653;SDS011;21083;50.898;4.902;2024-03-25T00:36:24;18.63;;;4.90;;
20653;SDS011;21083;50.898;4.902;2024-03-25T00:38:52;13.27;;;5.28;;
20653;SDS011;21083;50.898;4.902;2024-03-25T00:41:20;18.95;;;5.40;;
20653;SDS011;21083;50.898;4.902;2024-03-25T00:43:47;17.80;;;5.90;;
20653;SDS011;21083;50.898;4.902;2024-03-25T00:46:14;15.90;;;5.05;;
20653;SDS011;21083;50.898;4.902;2024-03-25T00:48:42;13.45;;;4.43;;
20653;SDS011;21083;50.898;4.902;2024-03-25T00:51:08;12.20;;;4.50;;
20653;SDS011;21083;50.898;4.902;2024-03-25T00:53:35;16.75;;;4.95;;
20653;SDS011;21083;50.898;4.902;2024-03-25T00:56:03;18.52;;;6.03;;
20653;SDS011;21083;50.898;4.902;2024-03-25T00:58:31;10.63;;;4.25;;
20653;SDS011;21083;50.898;4.902;2024-03-25T01:00:57;16.85;;;4.80;;
20653;SDS011;21083;50.898;4.902;2024-03-25T01:03:24;12.23;;;4.70;;
20653;SDS011;21083;50.898;4.902;2024-03-25T01:05:50;12.77;;;4.68;;
20653;SDS011;21083;50.898;4.902;2024-03-25T01:08:17;14.82;;;5.05;;
20653;SDS011;21083;50.898;4.902;2024-03-25T01:10:45;16.25;;;4.55;;
20653;SDS011;21083;50.898;4.902;2024-03-25T01:13:13;17.92;;;4.65;;
20653;SDS011;21083;50.898;4.902;2024-03-25T01:15:39;15.70;;;4.50;;
20653;SDS011;21083;50.898;4.902;2024-03-25T01:18:07;17.08;;;4.47;;
20653;SDS011;21083;50.898;4.902;2024-03-25T01:20:33;10.63;;;4.18;;
20653;SDS011;21083;50.898;4.902;2024-03-25T01:23:00;13.05;;;4.63;;
20653;SDS011;21083;50.898;4.902;2024-03-25T01:25:26;13.73;;;4.30;;
20653;SDS011;21083;50.898;4.902;2024-03-25T01:27:54;13.55;;;4.00;;
20653;SDS011;21083;50.898;4.902;2024-03-25T01:30:21;15.35;;;3.88;;
20653;SDS011;21083;50.898;4.902;2024-03-25T01:32:48;14.77;;;4.38;;
20653;SDS011;21083;50.898;4.902;2024-03-25T01:35:15;12.30;;;3.65;;
20653;SDS011;21083;50.898;4.902;2024-03-25T01:37:42;16.48;;;3.80;;
20653;SDS011;21083;50.898;4.902;2024-03-25T01:40:08;12.23;;;3.30;;
20653;SDS011;21083;50.898;4.902;2024-03-25T01:42:36;15.48;;;4.03;;
20653;SDS011;21083;50.898;4.902;2024-03-25T01:45:03;16.08;;;4.50;;
20653;SDS011;21083;50.898;4.902;2024-03-25T01:47:32;11.38;;;3.92;;
20653;SDS011;21083;50.898;4.902;2024-03-25T01:50:00;12.38;;;4.13;;
20653;SDS011;21083;50.898;4.902;2024-03-25T01:52:28;14.52;;;4.15;;
20653;SDS011;21083;50.898;4.902;2024-03-25T01:54:55;13.95;;;4.03;;
20653;SDS011;21083;50.898;4.902;2024-03-25T01:57:23;14.77;;;3.60;;
20653;SDS011;21083;50.898;4.902;2024-03-25T01:59:49;12.95;;;3.75;;
20653;SDS011;21083;50.898;4.902;2024-03-25T02:02:16;12.18;;;3.75;;
20653;SDS011;21083;50.898;4.902;2024-03-25T02:04:44;11.20;;;3.17;;
20653;SDS011;21083;50.898;4.902;2024-03-25T02:07:11;12.30;;;3.90;;
20653;SDS011;21083;50.898;4.902;2024-03-25T02:09:38;13.77;;;3.70;;
20653;SDS011;21083;50.898;4.902;2024-03-25T02:12:07;10.48;;;3.42;;
20653;SDS011;21083;50.898;4.902;2024-03-25T02:14:34;10.90;;;4.15;;
20653;SDS011;21083;50.898;4.902;2024-03-25T02:17:02;11.88;;;4.07;;
20653;SDS011;21083;50.898;4.902;2024-03-25T02:19:29;14.07;;;3.65;;
20653;SDS011;21083;50.898;4.902;2024-03-25T02:21:59;14.82;;;3.28;;
20653;SDS011;21083;50.898;4.902;2024-03-25T02:24:25;10.05;;;4.05;;
20653;SDS011;21083;50.898;4.902;2024-03-25T02:26:55;12.02;;;3.97;;
20653;SDS011;21083;50.898;4.902;2024-03-25T02:29:21;9.40;;;3.42;;
20653;SDS011;21083;50.898;4.902;2024-03-25T02:31:49;12.25;;;3.70;;
20653;SDS011;21083;50.898;4.902;2024-03-25T02:34:18;13.57;;;3.95;;
20653;SDS011;21083;50.898;4.902;2024-03-25T02:36:45;13.85;;;4.55;;
20653;SDS011;21083;50.898;4.902;2024-03-25T02:39:12;13.10;;;4.63;;
20653;SDS011;21083;50.898;4.902;2024-03-25T02:41:39;15.27;;;3.50;;
20653;SDS011;21083;50.898;4.902;2024-03-25T02:44:07;13.45;;;3.65;;
20653;SDS011;21083;50.898;4.902;2024-03-25T02:46:35;12.60;;;4.38;;
20653;SDS011;21083;50.898;4.902;2024-03-25T02:49:01;16.63;;;4.90;;
20653;SDS011;21083;50.898;4.902;2024-03-25T02:51:28;11.85;;;3.83;;
20653;SDS011;21083;50.898;4.902;2024-03-25T02:53:54;11.60;;;3.75;;
20653;SDS011;21083;50.898;4.902;2024-03-25T02:56:21;12.38;;;4.00;;
20653;SDS011;21083;50.898;4.902;2024-03-25T02:58:47;15.13;;;5.80;;
20653;SDS011;21083;50.898;4.902;2024-03-25T03:01:17;15.73;;;4.55;;
20653;SDS011;21083;50.898;4.902;2024-03-25T03:03:44;16.15;;;4.60;;
20653;SDS011;21083;50.898;4.902;2024-03-25T03:06:11;13.43;;;3.90;;
20653;SDS011;21083;50.898;4.902;2024-03-25T03:08:37;14.63;;;4.55;;
20653;SDS011;21083;50.898;4.902;2024-03-25T03:11:04;11.77;;;4.65;;
20653;SDS011;21083;50.898;4.902;2024-03-25T03:13:30;16.42;;;5.35;;
20653;SDS011;21083;50.898;4.902;2024-03-25T03:15:58;14.70;;;5.10;;
20653;SDS011;21083;50.898;4.902;2024-03-25T03:18:25;16.42;;;5.32;;
20653;SDS011;21083;50.898;4.902;2024-03-25T03:20:53;14.93;;;5.07;;
20653;SDS011;21083;50.898;4.902;2024-03-25T03:23:20;21.17;;;6.43;;
20653;SDS011;21083;50.898;4.902;2024-03-25T03:25:49;20.58;;;6.55;;
20653;SDS011;21083;50.898;4.902;2024-03-25T03:28:15;21.95;;;6.60;;
20653;SDS011;21083;50.898;4.902;2024-03-25T03:30:43;16.63;;;6.72;;
20653;SDS011;21083;50.898;4.902;2024-03-25T03:33:10;16.98;;;6.05;;
20653;SDS011;21083;50.898;4.902;2024-03-25T03:35:38;19.88;;;7.40;;
20653;SDS011;21083;50.898;4.902;2024-03-25T03:38:05;19.70;;;7.30;;
20653;SDS011;21083;50.898;4.902;2024-03-25T03:40:32;21.80;;;6.57;;
20653;SDS011;21083;50.898;4.902;2024-03-25T03:42:58;20.65;;;7.65;;
20653;SDS011;21083;50.898;4.902;2024-03-25T03:45:25;18.73;;;6.90;;
20653;SDS011;21083;50.898;4.902;2024-03-25T03:47:53;17.90;;;7.32;;
20653;SDS011;21083;50.898;4.902;2024-03-25T03:50:20;21.35;;;6.40;;
20653;SDS011;21083;50.898;4.902;2024-03-25T03:52:47;19.75;;;8.18;;
20653;SDS011;21083;50.898;4.902;2024-03-25T03:55:15;22.70;;;7.50;;
20653;SDS011;21083;50.898;4.902;2024-03-25T03:57:41;24.10;;;7.22;;
20653;SDS011;21083;50.898;4.902;2024-03-25T04:00:09;24.58;;;7.80;;
20653;SDS011;21083;50.898;4.902;2024-03-25T04:02:37;16.73;;;6.53;;
20653;SDS011;21083;50.898;4.902;2024-03-25T04:05:05;28.65;;;8.25;;
20653;SDS011;21083;50.898;4.902;2024-03-25T04:07:32;19.33;;;7.10;;
20653;SDS011;21083;50.898;4.902;2024-03-25T04:10:01;20.13;;;7.10;;
20653;SDS011;21083;50.898;4.902;2024-03-25T04:12:29;20.52;;;7.35;;
20653;SDS011;21083;50.898;4.902;2024-03-25T04:14:57;22.13;;;8.27;;
20653;SDS011;21083;50.898;4.902;2024-03-25T04:17:23;24.83;;;7.85;;
20653;SDS011;21083;50.898;4.902;2024-03-25T04:19:50;26.98;;;8.85;;
20653;SDS011;21083;50.898;4.902;2024-03-25T04:22:17;24.20;;;8.38;;
20653;SDS011;21083;50.898;4.902;2024-03-25T04:24:44;22.42;;;7.90;;
20653;SDS011;21083;50.898;4.902;2024-03-25T04:27:11;22.55;;;8.48;;
20653;SDS011;21083;50.898;4.902;2024-03-25T04:29:38;22.92;;;8.88;;
20653;SDS011;21083;50.898;4.902;2024-03-25T04:32:06;20.75;;;8.00;;
20653;SDS011;21083;50.898;4.902;2024-03-25T04:34:33;26.45;;;10.30;;
20653;SDS011;21083;50.898;4.902;2024-03-25T04:37:01;33.45;;;10.05;;
20653;SDS011;21083;50.898;4.902;2024-03-25T04:39:27;30.40;;;10.70;;
20653;SDS011;21083;50.898;4.902;2024-03-25T04:41:53;27.95;;;10.73;;
20653;SDS011;21083;50.898;4.902;2024-03-25T04:44:22;31.98;;;11.48;;
20653;SDS011;21083;50.898;4.902;2024-03-25T04:46:48;29.83;;;10.35;;
20653;SDS011;21083;50.898;4.902;2024-03-25T04:49:14;26.58;;;10.63;;
20653;SDS011;21083;50.898;4.902;2024-03-25T04:51:40;34.88;;;10.57;;
20653;SDS011;21083;50.898;4.902;2024-03-25T04:54:10;31.23;;;10.38;;
20653;SDS011;21083;50.898;4.902;2024-03-25T04:56:36;31.23;;;10.98;;
20653;SDS011;21083;50.898;4.902;2024-03-25T04:59:02;35.58;;;11.10;;
20653;SDS011;21083;50.898;4.902;2024-03-25T05:01:29;42.00;;;11.68;;
20653;SDS011;21083;50.898;4.902;2024-03-25T05:03:56;35.70;;;11.55;;
20653;SDS011;21083;50.898;4.902;2024-03-25T05:06:22;44.75;;;12.82;;
20653;SDS011;21083;50.898;4.902;2024-03-25T05:08:48;37.70;;;12.73;;
20653;SDS011;21083;50.898;4.902;2024-03-25T05:11:14;36.97;;;13.55;;
20653;SDS011;21083;50.898;4.902;2024-03-25T05:13:40;34.08;;;13.50;;
20653;SDS011;21083;50.898;4.902;2024-03-25T05:16:07;38.28;;;14.73;;
20653;SDS011;21083;50.898;4.902;2024-03-25T05:18:35;38.38;;;13.90;;
20653;SDS011;21083;50.898;4.902;2024-03-25T05:21:02;50.90;;;14.45;;
20653;SDS011;21083;50.898;4.902;2024-03-25T05:23:29;42.63;;;13.77;;
20653;SDS011;21083;50.898;4.902;2024-03-25T05:25:55;34.70;;;14.45;;
20653;SDS011;21083;50.898;4.902;2024-03-25T05:28:22;41.90;;;14.32;;
20653;SDS011;21083;50.898;4.902;2024-03-25T05:30:48;45.20;;;14.57;;
20653;SDS011;21083;50.898;4.902;2024-03-25T05:33:16;50.95;;;17.42;;
20653;SDS011;21083;50.898;4.902;2024-03-25T05:35:43;43.50;;;16.95;;
20653;SDS011;21083;50.898;4.902;2024-03-25T05:38:11;43.15;;;15.98;;
20653;SDS011;21083;50.898;4.902;2024-03-25T05:40:37;43.13;;;16.10;;
20653;SDS011;21083;50.898;4.902;2024-03-25T05:43:05;45.05;;;16.13;;
20653;SDS011;21083;50.898;4.902;2024-03-25T05:45:31;49.53;;;15.48;;
20653;SDS011;21083;50.898;4.902;2024-03-25T05:47:58;42.58;;;15.23;;
20653;SDS011;21083;50.898;4.902;2024-03-25T05:50:24;50.88;;;17.58;;
20653;SDS011;21083;50.898;4.902;2024-03-25T05:52:52;50.75;;;16.33;;
20653;SDS011;21083;50.898;4.902;2024-03-25T05:55:18;47.42;;;15.88;;
20653;SDS011;21083;50.898;4.902;2024-03-25T05:57:44;55.03;;;19.30;;
20653;SDS011;21083;50.898;4.902;2024-03-25T06:00:11;43.78;;;15.73;;
20653;SDS011;21083;50.898;4.902;2024-03-25T06:02:38;49.10;;;16.70;;
20653;SDS011;21083;50.898;4.902;2024-03-25T06:05:04;42.08;;;16.20;;
20653;SDS011;21083;50.898;4.902;2024-03-25T06:07:31;39.03;;;14.95;;
20653;SDS011;21083;50.898;4.902;2024-03-25T06:09:58;52.28;;;15.88;;
20653;SDS011;21083;50.898;4.902;2024-03-25T06:12:25;43.35;;;14.93;;
20653;SDS011;21083;50.898;4.902;2024-03-25T06:14:52;43.40;;;14.63;;
20653;SDS011;21083;50.898;4.902;2024-03-25T06:17:19;40.10;;;15.30;;
20653;SDS011;21083;50.898;4.902;2024-03-25T06:19:45;40.03;;;15.82;;
20653;SDS011;21083;50.898;4.902;2024-03-25T06:22:12;40.00;;;14.98;;
20653;SDS011;21083;50.898;4.902;2024-03-25T06:24:38;36.03;;;14.35;;
20653;SDS011;21083;50.898;4.902;2024-03-25T06:27:06;38.72;;;13.85;;
20653;SDS011;21083;50.898;4.902;2024-03-25T06:29:32;39.22;;;13.63;;
20653;SDS011;21083;50.898;4.902;2024-03-25T06:31:58;34.53;;;14.60;;
20653;SDS011;21083;50.898;4.902;2024-03-25T06:34:43;34.45;;;12.90;;
20653;SDS011;21083;50.898;4.902;2024-03-25T06:37:09;41.25;;;14.73;;
20653;SDS011;21083;50.898;4.902;2024-03-25T06:39:35;44.10;;;14.13;;
20653;SDS011;21083;50.898;4.902;2024-03-25T06:42:01;32.63;;;12.65;;
20653;SDS011;21083;50.898;4.902;2024-03-25T06:44:29;34.80;;;12.45;;
20653;SDS011;21083;50.898;4.902;2024-03-25T06:46:56;39.55;;;11.88;;
20653;SDS011;21083;50.898;4.902;2024-03-25T06:49:22;35.05;;;11.68;;
20653;SDS011;21083;50.898;4.902;2024-03-25T06:51:50;33.00;;;12.20;;
20653;SDS011;21083;50.898;4.902;2024-03-25T06:54:17;41.22;;;12.38;;
20653;SDS011;21083;50.898;4.902;2024-03-25T06:56:43;37.03;;;12.23;;
20653;SDS011;21083;50.898;4.902;2024-03-25T06:59:09;43.72;;;12.18;;
20653;SDS011;21083;50.898;4.902;2024-03-25T07:01:37;32.30;;;12.05;;
20653;SDS011;21083;50.898;4.902;2024-03-25T07:04:03;34.95;;;12.02;;
20653;SDS011;21083;50.898;4.902;2024-03-25T07:06:30;34.55;;;11.88;;
20653;SDS011;21083;50.898;4.902;2024-03-25T07:08:57;33.85;;;12.25;;
20653;SDS011;21083;50.898;4.902;2024-03-25T07:11:23;31.98;;;11.25;;
20653;SDS011;21083;50.898;4.902;2024-03-25T07:13:50;35.65;;;11.52;;
20653;SDS011;21083;50.898;4.902;2024-03-25T07:16:16;31.02;;;11.20;;
20653;SDS011;21083;50.898;4.902;2024-03-25T07:18:44;27.52;;;10.82;;
20653;SDS011;21083;50.898;4.902;2024-03-25T07:21:10;26.55;;;9.85;;
20653;SDS011;21083;50.898;4.902;2024-03-25T07:23:36;36.58;;;10.95;;
20653;SDS011;21083;50.898;4.902;2024-03-25T07:26:02;32.15;;;11.02;;
20653;SDS011;21083;50.898;4.902;2024-03-25T07:28:28;30.30;;;10.05;;
20653;SDS011;21083;50.898;4.902;2024-03-25T07:33:24;28.05;;;11.30;;
20653;SDS011;21083;50.898;4.902;2024-03-25T07:35:52;36.03;;;11.90;;
20653;SDS011;21083;50.898;4.902;2024-03-25T07:38:19;37.33;;;11.85;;
20653;SDS011;21083;50.898;4.902;2024-03-25T07:40:46;27.55;;;9.75;;
20653;SDS011;21083;50.898;4.902;2024-03-25T07:43:13;29.20;;;10.90;;
20653;SDS011;21083;50.898;4.902;2024-03-25T07:45:41;30.77;;;10.80;;
20653;SDS011;21083;50.898;4.902;2024-03-25T07:48:07;30.27;;;10.35;;
20653;SDS011;21083;50.898;4.902;2024-03-25T07:50:34;32.53;;;10.00;;
20653;SDS011;21083;50.898;4.902;2024-03-25T07:53:02;29.85;;;9.45;;
20653;SDS011;21083;50.898;4.902;2024-03-25T07:55:29;30.13;;;9.25;;
20653;SDS011;21083;50.898;4.902;2024-03-25T07:57:55;28.40;;;10.55;;
20653;SDS011;21083;50.898;4.902;2024-03-25T08:00:21;26.80;;;9.13;;
20653;SDS011;21083;50.898;4.902;2024-03-25T08:02:47;25.77;;;9.57;;
20653;SDS011;21083;50.898;4.902;2024-03-25T08:05:13;28.45;;;9.27;;
20653;SDS011;21083;50.898;4.902;2024-03-25T08:07:40;25.75;;;8.85;;
20653;SDS011;21083;50.898;4.902;2024-03-25T08:10:08;31.52;;;8.52;;
20653;SDS011;21083;50.898;4.902;2024-03-25T08:12:35;30.27;;;9.32;;
20653;SDS011;21083;50.898;4.902;2024-03-25T08:15:01;25.08;;;9.60;;
20653;SDS011;21083;50.898;4.902;2024-03-25T08:17:27;27.25;;;8.98;;
20653;SDS011;21083;50.898;4.902;2024-03-25T08:19:53;29.58;;;10.27;;
20653;SDS011;21083;50.898;4.902;2024-03-25T08:22:20;24.17;;;9.07;;
20653;SDS011;21083;50.898;4.902;2024-03-25T08:24:46;23.75;;;8.13;;
20653;SDS011;21083;50.898;4.902;2024-03-25T08:27:13;20.30;;;7.95;;
20653;SDS011;21083;50.898;4.902;2024-03-25T08:29:40;22.67;;;8.35;;
20653;SDS011;21083;50.898;4.902;2024-03-25T08:32:06;25.17;;;7.60;;
20653;SDS011;21083;50.898;4.902;2024-03-25T08:34:32;19.58;;;8.10;;
20653;SDS011;21083;50.898;4.902;2024-03-25T08:36:58;19.85;;;7.53;;
20653;SDS011;21083;50.898;4.902;2024-03-25T08:39:24;25.65;;;8.70;;
20653;SDS011;21083;50.898;4.902;2024-03-25T08:41:51;27.95;;;7.90;;
20653;SDS011;21083;50.898;4.902;2024-03-25T08:44:18;21.45;;;7.88;;
20653;SDS011;21083;50.898;4.902;2024-03-25T08:46:44;21.98;;;7.03;;
20653;SDS011;21083;50.898;4.902;2024-03-25T08:49:11;26.35;;;7.28;;
20653;SDS011;21083;50.898;4.902;2024-03-25T08:51:37;22.58;;;8.63;;
20653;SDS011;21083;50.898;4.902;2024-03-25T08:54:03;21.10;;;6.55;;
20653;SDS011;21083;50.898;4.902;2024-03-25T08:56:29;26.63;;;7.40;;
20653;SDS011;21083;50.898;4.902;2024-03-25T08:58:55;20.65;;;6.68;;
20653;SDS011;21083;50.898;4.902;2024-03-25T09:01:23;21.48;;;6.82;;
20653;SDS011;21083;50.898;4.902;2024-03-25T09:03:49;24.30;;;6.15;;
20653;SDS011;21083;50.898;4.902;2024-03-25T09:06:16;25.08;;;6.40;;
20653;SDS011;21083;50.898;4.902;2024-03-25T09:08:42;19.83;;;6.82;;
20653;SDS011;21083;50.898;4.902;2024-03-25T09:11:23;17.73;;;6.63;;
20653;SDS011;21083;50.898;4.902;2024-03-25T09:13:49;20.73;;;5.90;;
20653;SDS011;21083;50.898;4.902;2024-03-25T09:16:15;29.40;;;6.88;;
20653;SDS011;21083;50.898;4.902;2024-03-25T09:18:43;20.05;;;5.80;;
20653;SDS011;21083;50.898;4.902;2024-03-25T09:21:09;22.73;;;5.97;;
20653;SDS011;21083;50.898;4.902;2024-03-25T09:23:35;19.75;;;5.57;;
20653;SDS011;21083;50.898;4.902;2024-03-25T09:26:02;24.63;;;6.53;;
20653;SDS011;21083;50.898;4.902;2024-03-25T09:28:28;25.42;;;5.90;;
20653;SDS011;21083;50.898;4.902;2024-03-25T09:30:54;23.00;;;7.32;;
20653;SDS011;21083;50.898;4.902;2024-03-25T09:33:21;19.70;;;6.13;;
20653;SDS011;21083;50.898;4.902;2024-03-25T09:35:48;17.30;;;6.35;;
20653;SDS011;21083;50.898;4.902;2024-03-25T09:38:15;26.70;;;6.20;;
20653;SDS011;21083;50.898;4.902;2024-03-25T09:40:41;23.60;;;6.45;;
20653;SDS011;21083;50.898;4.902;2024-03-25T09:43:10;19.77;;;6.03;;
20653;SDS011;21083;50.898;4.902;2024-03-25T09:45:42;29.25;;;6.43;;
20653;SDS011;21083;50.898;4.902;2024-03-25T09:48:13;21.70;;;5.82;;
20653;SDS011;21083;50.898;4.902;2024-03-25T09:50:42;22.05;;;5.57;;
20653;SDS011;21083;50.898;4.902;2024-03-25T09:53:10;21.08;;;6.15;;
20653;SDS011;21083;50.898;4.902;2024-03-25T09:55:36;16.40;;;5.40;;
20653;SDS011;21083;50.898;4.902;2024-03-25T09:58:03;13.27;;;4.72;;
20653;SDS011;21083;50.898;4.902;2024-03-25T10:00:30;14.00;;;3.95;;
20653;SDS011;21083;50.898;4.902;2024-03-25T10:02:56;22.27;;;5.10;;
20653;SDS011;21083;50.898;4.902;2024-03-25T10:05:22;17.58;;;5.10;;
20653;SDS011;21083;50.898;4.902;2024-03-25T10:07:49;18.30;;;4.97;;
20653;SDS011;21083;50.898;4.902;2024-03-25T10:10:19;17.15;;;4.22;;
20653;SDS011;21083;50.898;4.902;2024-03-25T10:12:46;14.95;;;4.80;;
20653;SDS011;21083;50.898;4.902;2024-03-25T10:15:15;17.35;;;5.05;;
20653;SDS011;21083;50.898;4.902;2024-03-25T10:17:41;14.40;;;4.15;;
20653;SDS011;21083;50.898;4.902;2024-03-25T10:20:08;14.38;;;4.93;;
20653;SDS011;21083;50.898;4.902;2024-03-25T10:22:42;13.55;;;4.95;;
20653;SDS011;21083;50.898;4.902;2024-03-25T10:25:20;17.80;;;4.75;;
20653;SDS011;21083;50.898;4.902;2024-03-25T10:27:56;12.57;;;4.00;;
20653;SDS011;21083;50.898;4.902;2024-03-25T10:30:23;15.32;;;3.95;;
20653;SDS011;21083;50.898;4.902;2024-03-25T10:32:59;14.35;;;3.92;;
20653;SDS011;21083;50.898;4.902;2024-03-25T10:35:26;10.98;;;4.07;;
20653;SDS011;21083;50.898;4.902;2024-03-25T10:37:54;19.88;;;4.55;;
20653;SDS011;21083;50.898;4.902;2024-03-25T10:40:24;12.75;;;4.38;;
20653;SDS011;21083;50.898;4.902;2024-03-25T10:42:54;13.68;;;4.65;;
20653;SDS011;21083;50.898;4.902;2024-03-25T10:45:26;12.68;;;4.13;;
20653;SDS011;21083;50.898;4.902;2024-03-25T10:47:57;14.80;;;4.72;;
20653;SDS011;21083;50.898;4.902;2024-03-25T10:50:26;15.13;;;5.10;;
20653;SDS011;21083;50.898;4.902;2024-03-25T10:52:53;12.65;;;4.32;;
20653;SDS011;21083;50.898;4.902;2024-03-25T10:55:20;15.68;;;4.63;;
20653;SDS011;21083;50.898;4.902;2024-03-25T10:57:49;14.93;;;4.65;;
20653;SDS011;21083;50.898;4.902;2024-03-25T11:00:16;12.50;;;3.97;;
20653;SDS011;21083;50.898;4.902;2024-03-25T11:02:42;16.05;;;4.57;;
20653;SDS011;21083;50.898;4.902;2024-03-25T11:05:09;17.35;;;4.95;;
20653;SDS011;21083;50.898;4.902;2024-03-25T11:07:37;15.65;;;3.85;;
20653;SDS011;21083;50.898;4.902;2024-03-25T11:10:03;11.88;;;3.53;;
20653;SDS011;21083;50.898;4.902;2024-03-25T11:12:34;15.57;;;4.53;;
20653;SDS011;21083;50.898;4.902;2024-03-25T11:15:03;16.30;;;4.68;;
20653;SDS011;21083;50.898;4.902;2024-03-25T11:17:30;14.38;;;3.70;;
20653;SDS011;21083;50.898;4.902;2024-03-25T11:20:07;13.27;;;4.47;;
20653;SDS011;21083;50.898;4.902;2024-03-25T11:22:47;10.57;;;3.38;;
20653;SDS011;21083;50.898;4.902;2024-03-25T11:25:14;17.40;;;3.70;;
20653;SDS011;21083;50.898;4.902;2024-03-25T11:27:42;10.50;;;3.50;;
20653;SDS011;21083;50.898;4.902;2024-03-25T11:30:10;10.23;;;3.20;;
20653;SDS011;21083;50.898;4.902;2024-03-25T11:32:43;12.40;;;3.22;;
20653;SDS011;21083;50.898;4.902;2024-03-25T11:35:10;11.65;;;2.85;;
20653;SDS011;21083;50.898;4.902;2024-03-25T11:37:40;11.82;;;2.58;;
20653;SDS011;21083;50.898;4.902;2024-03-25T11:40:07;12.25;;;2.28;;
20653;SDS011;21083;50.898;4.902;2024-03-25T11:42:34;13.18;;;2.75;;
20653;SDS011;21083;50.898;4.902;2024-03-25T11:45:01;10.80;;;2.65;;
20653;SDS011;21083;50.898;4.902;2024-03-25T11:47:28;8.10;;;2.17;;
20653;SDS011;21083;50.898;4.902;2024-03-25T11:49:56;8.88;;;2.92;;
20653;SDS011;21083;50.898;4.902;2024-03-25T11:52:22;13.05;;;2.50;;
20653;SDS011;21083;50.898;4.902;2024-03-25T11:54:55;9.65;;;2.13;;
20653;SDS011;21083;50.898;4.902;2024-03-25T11:57:22;9.95;;;2.40;;
20653;SDS011;21083;50.898;4.902;2024-03-25T11:59:48;6.95;;;2.00;;
20653;SDS011;21083;50.898;4.902;2024-03-25T12:02:15;7.13;;;1.83;;
20653;SDS011;21083;50.898;4.902;2024-03-25T12:04:47;7.72;;;2.50;;
20653;SDS011;21083;50.898;4.902;2024-03-25T12:07:13;7.93;;;2.13;;
20653;SDS011;21083;50.898;4.902;2024-03-25T12:09:40;13.90;;;2.67;;
20653;SDS011;21083;50.898;4.902;2024-03-25T12:12:24;11.00;;;2.15;;
20653;SDS011;21083;50.898;4.902;2024-03-25T12:14:51;10.38;;;2.65;;
20653;SDS011;21083;50.898;4.902;2024-03-25T12:17:18;8.55;;;2.03;;
20653;SDS011;21083;50.898;4.902;2024-03-25T12:19:57;8.35;;;2.30;;
20653;SDS011;21083;50.898;4.902;2024-03-25T12:22:24;16.15;;;8.63;;
20653;SDS011;21083;50.898;4.902;2024-03-25T12:24:51;10.82;;;2.35;;
20653;SDS011;21083;50.898;4.902;2024-03-25T12:27:17;10.02;;;2.38;;
20653;SDS011;21083;50.898;4.902;2024-03-25T12:29:43;16.13;;;2.63;;
20653;SDS011;21083;50.898;4.902;2024-03-25T12:32:09;14.23;;;3.58;;
20653;SDS011;21083;50.898;4.902;2024-03-25T12:34:36;8.45;;;2.50;;
20653;SDS011;21083;50.898;4.902;2024-03-25T12:37:03;19.20;;;3.38;;
20653;SDS011;21083;50.898;4.902;2024-03-25T12:39:30;5.72;;;2.47;;
20653;SDS011;21083;50.898;4.902;2024-03-25T12:41:56;13.90;;;3.03;;
20653;SDS011;21083;50.898;4.902;2024-03-25T12:44:23;7.88;;;2.35;;
20653;SDS011;21083;50.898;4.902;2024-03-25T12:46:49;7.45;;;2.53;;
20653;SDS011;21083;50.898;4.902;2024-03-25T12:49:16;10.25;;;3.15;;
20653;SDS011;21083;50.898;4.902;2024-03-25T12:51:42;9.60;;;2.30;;
20653;SDS011;21083;50.898;4.902;2024-03-25T12:54:09;4.10;;;1.60;;
20653;SDS011;21083;50.898;4.902;2024-03-25T12:56:36;10.02;;;2.40;;
20653;SDS011;21083;50.898;4.902;2024-03-25T12:59:02;9.25;;;2.38;;
20653;SDS011;21083;50.898;4.902;2024-03-25T13:01:28;10.23;;;2.80;;
20653;SDS011;21083;50.898;4.902;2024-03-25T13:03:54;4.20;;;1.70;;
20653;SDS011;21083;50.898;4.902;2024-03-25T13:06:20;6.05;;;1.88;;
20653;SDS011;21083;50.898;4.902;2024-03-25T13:08:46;6.28;;;2.20;;
20653;SDS011;21083;50.898;4.902;2024-03-25T13:11:14;8.18;;;2.60;;
20653;SDS011;21083;50.898;4.902;2024-03-25T13:13:40;6.53;;;2.65;;
20653;SDS011;21083;50.898;4.902;2024-03-25T13:16:06;7.63;;;2.22;;
20653;SDS011;21083;50.898;4.902;2024-03-25T13:18:32;10.40;;;2.70;;
20653;SDS011;21083;50.898;4.902;2024-03-25T13:20:58;9.48;;;2.40;;
20653;SDS011;21083;50.898;4.902;2024-03-25T13:23:25;8.05;;;2.15;;
20653;SDS011;21083;50.898;4.902;2024-03-25T13:25:51;8.93;;;2.17;;
20653;SDS011;21083;50.898;4.902;2024-03-25T13:28:18;14.57;;;9.13;;
20653;SDS011;21083;50.898;4.902;2024-03-25T13:30:45;9.27;;;3.78;;
20653;SDS011;21083;50.898;4.902;2024-03-25T13:33:11;5.30;;;1.90;;
20653;SDS011;21083;50.898;4.902;2024-03-25T13:35:37;9.13;;;2.40;;
20653;SDS011;21083;50.898;4.902;2024-03-25T13:38:03;7.45;;;2.20;;
20653;SDS011;21083;50.898;4.902;2024-03-25T13:40:29;9.95;;;2.60;;
20653;SDS011;21083;50.898;4.902;2024-03-25T13:42:55;7.32;;;2.00;;
20653;SDS011;21083;50.898;4.902;2024-03-25T13:45:23;7.18;;;2.38;;
20653;SDS011;21083;50.898;4.902;2024-03-25T13:47:51;10.52;;;2.63;;
20653;SDS011;21083;50.898;4.902;2024-03-25T13:50:17;8.18;;;2.47;;
20653;SDS011;21083;50.898;4.902;2024-03-25T13:52:44;7.75;;;2.20;;
20653;SDS011;21083;50.898;4.902;2024-03-25T13:55:10;4.10;;;1.65;;
20653;SDS011;21083;50.898;4.902;2024-03-25T13:57:36;6.03;;;1.92;;
20653;SDS011;21083;50.898;4.902;2024-03-25T14:00:02;7.43;;;2.33;;
20653;SDS011;21083;50.898;4.902;2024-03-25T14:02:31;7.28;;;2.20;;
20653;SDS011;21083;50.898;4.902;2024-03-25T14:04:57;6.00;;;1.88;;
20653;SDS011;21083;50.898;4.902;2024-03-25T14:07:23;6.40;;;1.90;;
20653;SDS011;21083;50.898;4.902;2024-03-25T14:09:49;7.45;;;1.95;;
20653;SDS011;21083;50.898;4.902;2024-03-25T14:12:15;7.57;;;1.92;;
20653;SDS011;21083;50.898;4.902;2024-03-25T14:14:41;6.00;;;1.80;;
20653;SDS011;21083;50.898;4.902;2024-03-25T14:17:07;7.95;;;1.83;;
20653;SDS011;21083;50.898;4.902;2024-03-25T14:19:34;5.55;;;1.63;;
20653;SDS011;21083;50.898;4.902;2024-03-25T14:22:00;8.38;;;2.15;;
20653;SDS011;21083;50.898;4.902;2024-03-25T14:24:26;8.20;;;2.00;;
20653;SDS011;21083;50.898;4.902;2024-03-25T14:26:52;7.47;;;1.77;;
20653;SDS011;21083;50.898;4.902;2024-03-25T14:29:19;7.78;;;1.95;;
20653;SDS011;21083;50.898;4.902;2024-03-25T14:31:45;6.85;;;1.50;;
20653;SDS011;21083;50.898;4.902;2024-03-25T14:34:11;5.13;;;1.50;;
20653;SDS011;21083;50.898;4.902;2024-03-25T14:36:38;6.38;;;1.50;;